Terminal Aerodrome Forecast
Issued by NWS Grand Forks, ND

Home | Current Version | Previous Version | Graphics & Text | Print | Product List | Glossary On
Versions: 1 2 3 4 5 6 7 8 9 10 11 12 13 14 15 16 17 18 19 20 21 22 23 24 25 26 27
000
FTUS43 KFGF 171300 AAA
TAFFAR
TAF AMD
KFAR 171353Z 1714/1812 VRB03KT P6SM BKN015
      TEMPO 1714/1718 -RA BKN008
     FM172100 12007KT P6SM BKN035
     FM180500 17005KT P6SM -TSRA BKN050CB=

USA.gov is the U.S. government's official web portal to all federal, state and local government web resources and services.